createdAt,value
2022-11-01T00:01:05.750Z,49.25
2022-11-01T00:02:29.231Z,44.42
2022-11-01T00:03:51.667Z,44.40
2022-11-01T00:05:15.058Z,46.53
2022-11-01T00:06:37.433Z,44.95
2022-11-01T00:08:02.381Z,41.47
2022-11-01T00:09:26.032Z,56.83
2022-11-01T00:10:48.456Z,43.90
2022-11-01T00:12:11.934Z,42.97
2022-11-01T00:13:34.474Z,32.60
2022-11-01T00:14:57.798Z,43.97
2022-11-01T00:16:21.315Z,31.00
2022-11-01T00:17:44.666Z,42.40
2022-11-01T00:19:08.379Z,38.35
2022-11-01T00:20:30.753Z,41.53
2022-11-01T00:21:54.085Z,40.28
2022-11-01T00:23:17.777Z,45.35
2022-11-01T00:24:41.165Z,42.97
2022-11-01T00:26:05.370Z,41.72
2022-11-01T00:27:28.714Z,41.75
2022-11-01T00:28:52.642Z,42.90
2022-11-01T00:30:15.119Z,35.83
2022-11-01T00:31:38.467Z,37.97
2022-11-01T00:33:00.814Z,37.63
2022-11-01T00:34:24.273Z,34.55
2022-11-01T00:35:47.086Z,38.10
2022-11-01T00:37:10.438Z,40.30
2022-11-01T00:38:35.219Z,44.50
2022-11-01T00:39:57.596Z,41.35
2022-11-01T00:41:21.740Z,43.03
2022-11-01T00:42:44.120Z,43.20
2022-11-01T00:44:07.535Z,37.47
2022-11-01T00:45:29.905Z,39.63
2022-11-01T00:46:53.290Z,43.40
2022-11-01T00:48:15.720Z,46.15
2022-11-01T00:49:39.085Z,46.30
2022-11-01T00:51:01.433Z,46.28
2022-11-01T00:52:24.919Z,52.20
2022-11-01T00:53:49.659Z,39.53
2022-11-01T00:55:12.100Z,41.25
2022-11-01T00:56:35.455Z,55.13
2022-11-01T00:57:57.879Z,43.88
2022-11-01T00:59:21.612Z,42.20
2022-11-01T01:00:44.037Z,41.85
2022-11-01T01:02:07.579Z,37.25
2022-11-01T01:03:30.127Z,40.35
2022-11-01T01:04:54.723Z,43.55
2022-11-01T01:06:20.901Z,49.08
2022-11-01T01:07:43.311Z,32.80
2022-11-01T01:09:08.151Z,40.90
2022-11-01T01:10:30.582Z,43.88
2022-11-01T01:11:54.476Z,48.75
2022-11-01T01:13:18.358Z,34.20
2022-11-01T01:14:40.745Z,47.22
2022-11-01T01:16:09.552Z,34.33
2022-11-01T01:17:33.801Z,38.15
2022-11-01T01:18:57.403Z,41.67
2022-11-01T01:20:20.294Z,38.78
2022-11-01T01:21:43.651Z,34.47
2022-11-01T01:23:07.005Z,29.95
2022-11-01T01:24:31.350Z,35.17
2022-11-01T01:25:54.706Z,35.08
2022-11-01T01:27:18.807Z,31.58
2022-11-01T01:28:44.761Z,47.83
2022-11-01T01:30:08.073Z,37.10
2022-11-01T01:31:31.647Z,38.13
2022-11-01T01:32:54.986Z,38.08
2022-11-01T01:34:17.532Z,32.65
2022-11-01T01:35:41.247Z,38.72
2022-11-01T01:37:06.837Z,43.30
2022-11-01T01:38:29.909Z,36.03
2022-11-01T01:39:55.057Z,39.03
2022-11-01T01:41:35.758Z,42.67
2022-11-01T01:42:59.137Z,38.20
2022-11-01T01:45:03.834Z,32.08
2022-11-01T01:46:27.183Z,43.08
2022-11-01T01:47:52.443Z,38.92
2022-11-01T01:49:15.847Z,42.72
2022-11-01T01:50:42.912Z,36.92
2022-11-01T01:52:05.520Z,33.20
2022-11-01T01:53:31.091Z,41.63
2022-11-01T01:54:55.111Z,39.30
2022-11-01T01:56:21.430Z,36.53
2022-11-01T01:57:44.027Z,44.60
2022-11-01T01:59:08.919Z,37.80
2022-11-01T02:00:31.468Z,42.88
2022-11-01T02:01:55.077Z,44.63
2022-11-01T02:03:18.258Z,43.42
2022-11-01T02:04:43.595Z,41.00
2022-11-01T02:06:10.386Z,39.83
2022-11-01T02:07:32.873Z,33.58
2022-11-01T02:08:58.033Z,39.55
2022-11-01T02:10:22.516Z,35.40
2022-11-01T02:11:46.014Z,37.00
2022-11-01T02:13:13.179Z,36.78
2022-11-01T02:14:36.533Z,41.47
2022-11-01T02:16:27.643Z,38.80
2022-11-01T02:18:01.763Z,33.42
2022-11-01T02:19:57.426Z,36.33
2022-11-01T02:21:55.521Z,43.00
2022-11-01T02:23:40.650Z,34.47
2022-11-01T02:25:20.357Z,37.10
2022-11-01T02:27:11.849Z,40.20
2022-11-01T02:28:45.700Z,38.58
2022-11-01T02:30:16.317Z,35.55
2022-11-01T02:32:04.952Z,34.90
2022-11-01T02:33:30.907Z,32.42
2022-11-01T02:34:57.377Z,43.53
2022-11-01T02:36:25.846Z,36.30
2022-11-01T02:37:53.566Z,39.92
2022-11-01T02:39:20.500Z,37.55
2022-11-01T02:40:47.111Z,40.78
2022-11-01T02:42:14.577Z,33.08
2022-11-01T02:43:44.524Z,43.25
2022-11-01T02:45:10.384Z,39.95
2022-11-01T02:46:54.190Z,38.75
2022-11-01T02:48:21.694Z,43.90
2022-11-01T02:49:46.337Z,41.47
2022-11-01T02:51:08.965Z,33.72
2022-11-01T02:52:33.762Z,49.05
2022-11-01T02:53:57.097Z,38.72
2022-11-01T02:55:29.836Z,38.30
2022-11-01T02:56:53.876Z,49.20
2022-11-01T02:58:21.899Z,46.17
2022-11-01T02:59:45.839Z,42.65
2022-11-01T03:01:15.214Z,46.80
2022-11-01T03:02:41.492Z,42.22
2022-11-01T03:04:06.390Z,35.65
2022-11-01T03:05:34.940Z,45.05
2022-11-01T03:07:00.341Z,48.25
2022-11-01T03:08:25.408Z,44.33
2022-11-01T03:09:47.826Z,54.70
2022-11-01T03:11:13.414Z,44.78
2022-11-01T03:12:40.357Z,37.88
2022-11-01T03:14:10.924Z,47.53
2022-11-01T03:15:39.827Z,39.95
2022-11-01T03:17:07.080Z,46.90
2022-11-01T03:18:33.540Z,41.95
2022-11-01T03:20:04.399Z,41.88
2022-11-01T03:21:28.614Z,45.25
2022-11-01T03:22:55.296Z,45.85
2022-11-01T03:24:23.641Z,42.50
2022-11-01T03:25:50.304Z,43.20
2022-11-01T03:27:17.980Z,41.47
2022-11-01T03:28:43.605Z,44.05
2022-11-01T03:30:09.512Z,41.55
2022-11-01T03:31:34.184Z,40.88
2022-11-01T03:32:58.817Z,49.53
2022-11-01T03:34:22.974Z,46.75
2022-11-01T03:35:50.049Z,38.10
2022-11-01T03:37:14.323Z,49.20
2022-11-01T03:38:40.079Z,47.42
2022-11-01T03:40:04.914Z,45.70
2022-11-01T03:41:27.960Z,48.83
2022-11-01T03:42:52.502Z,41.33
2022-11-01T03:44:15.918Z,50.35
2022-11-01T03:45:41.142Z,43.95
2022-11-01T03:47:03.885Z,50.08
2022-11-01T03:48:27.308Z,49.38
2022-11-01T03:50:05.525Z,42.33
2022-11-01T03:51:30.917Z,50.45
2022-11-01T03:52:54.611Z,46.92
2022-11-01T03:54:17.967Z,50.70
2022-11-01T03:55:40.522Z,50.40
2022-11-01T03:57:04.069Z,46.75
2022-11-01T03:58:41.420Z,48.85
2022-11-01T04:00:05.338Z,48.90
2022-11-01T04:01:28.749Z,51.20
2022-11-01T04:02:51.961Z,53.45
2022-11-01T04:04:15.537Z,54.95
2022-11-01T04:05:39.226Z,54.90
2022-11-01T04:07:03.964Z,55.72
2022-11-01T04:08:27.301Z,50.92
2022-11-01T04:09:50.721Z,48.40
2022-11-01T04:11:14.046Z,44.22
2022-11-01T04:12:38.897Z,47.40
2022-11-01T04:14:16.174Z,47.70
2022-11-01T04:15:56.848Z,45.53
2022-11-01T04:17:37.893Z,48.20
2022-11-01T04:19:18.868Z,43.53
2022-11-01T04:20:42.195Z,49.25
2022-11-01T04:22:06.910Z,58.33
2022-11-01T04:23:29.326Z,42.58
2022-11-01T04:24:52.713Z,39.53
2022-11-01T04:26:16.537Z,45.40
2022-11-01T04:27:39.878Z,50.58
2022-11-01T04:29:03.282Z,47.58
2022-11-01T04:30:26.309Z,45.13
2022-11-01T04:31:49.659Z,53.10
2022-11-01T04:33:12.023Z,46.47
2022-11-01T04:34:44.537Z,46.75
2022-11-01T04:36:08.835Z,49.80
2022-11-01T04:37:32.631Z,54.63
2022-11-01T04:38:57.379Z,53.03
2022-11-01T04:40:20.447Z,46.60
2022-11-01T04:41:43.905Z,46.20
2022-11-01T04:43:06.321Z,54.08
2022-11-01T04:44:29.958Z,38.08
2022-11-01T04:47:50.830Z,44.47
2022-11-01T04:49:14.169Z,47.67
2022-11-01T04:50:37.786Z,56.97
2022-11-01T04:52:01.918Z,52.58
2022-11-01T04:53:25.629Z,46.78
2022-11-01T04:54:48.989Z,55.65
2022-11-01T04:56:14.437Z,50.80
2022-11-01T04:57:39.131Z,44.08
2022-11-01T04:59:02.486Z,43.35
2022-11-01T05:00:26.565Z,56.35
2022-11-01T05:01:49.041Z,42.58
2022-11-01T05:03:13.046Z,51.25
2022-11-01T05:04:35.384Z,44.33
2022-11-01T05:06:00.493Z,40.78
2022-11-01T05:07:22.860Z,47.75
2022-11-01T05:08:47.596Z,45.83
2022-11-01T05:10:10.618Z,52.55
2022-11-01T05:11:33.961Z,50.78
2022-11-01T05:12:57.298Z,43.97
2022-11-01T05:14:19.745Z,52.40
2022-11-01T05:15:53.586Z,47.25
2022-11-01T05:17:26.540Z,55.88
2022-11-01T05:18:50.202Z,46.72
2022-11-01T05:20:12.719Z,49.53
2022-11-01T05:21:36.063Z,45.83
2022-11-01T05:23:01.697Z,50.90
2022-11-01T05:24:26.679Z,51.42
2022-11-01T05:25:50.109Z,39.38
2022-11-01T05:27:12.550Z,43.30
2022-11-01T05:28:35.896Z,44.80
2022-11-01T05:29:59.217Z,52.45
2022-11-01T05:31:22.559Z,53.22
2022-11-01T05:32:44.894Z,37.50
2022-11-01T05:34:08.225Z,35.40
2022-11-01T05:35:32.372Z,48.08
2022-11-01T05:36:54.946Z,43.58
2022-11-01T05:38:18.289Z,46.15
2022-11-01T05:39:42.019Z,48.28
2022-11-01T05:41:05.915Z,39.10
2022-11-01T05:42:28.356Z,40.05
2022-11-01T05:43:51.812Z,37.03
2022-11-01T05:45:14.279Z,43.08
2022-11-01T05:46:37.648Z,49.83
2022-11-01T05:48:03.935Z,44.15
2022-11-01T05:49:27.548Z,40.10
2022-11-01T05:50:50.871Z,34.00
2022-11-01T05:52:14.277Z,32.25
2022-11-01T05:53:37.718Z,51.65
2022-11-01T05:55:02.427Z,47.72
2022-11-01T05:56:24.793Z,39.85
2022-11-01T05:59:16.613Z,48.83
2022-11-01T06:00:38.968Z,47.65
2022-11-01T06:02:02.494Z,53.78
2022-11-01T06:03:25.969Z,48.90
2022-11-01T06:04:49.764Z,46.35
2022-11-01T06:06:13.230Z,42.15
2022-11-01T06:07:37.459Z,42.15
2022-11-01T06:09:00.152Z,51.13
2022-11-01T06:10:24.992Z,48.80
2022-11-01T06:11:47.344Z,42.10
2022-11-01T06:13:10.967Z,42.83
2022-11-01T06:16:00.190Z,41.58
2022-11-01T06:17:23.516Z,52.83
2022-11-01T06:18:45.879Z,47.92
2022-11-01T06:20:10.025Z,39.38
2022-11-01T06:21:33.393Z,45.15
2022-11-01T06:22:55.770Z,43.15
2022-11-01T06:24:19.140Z,45.60
2022-11-01T06:25:43.846Z,49.50
2022-11-01T06:27:11.534Z,47.70
2022-11-01T06:28:36.513Z,49.05
2022-11-01T06:29:59.862Z,47.30
2022-11-01T06:31:24.120Z,45.85
2022-11-01T06:32:47.679Z,38.83
2022-11-01T06:34:11.004Z,41.28
2022-11-01T06:35:33.749Z,42.50
2022-11-01T06:36:57.117Z,49.88
2022-11-01T06:38:19.484Z,41.63
2022-11-01T06:39:42.856Z,49.80
2022-11-01T06:41:07.635Z,42.05
2022-11-01T06:42:30.991Z,50.50
2022-11-01T06:43:54.388Z,49.08
2022-11-01T06:45:18.164Z,44.47
2022-11-01T06:46:41.657Z,48.35
2022-11-01T06:48:04.642Z,43.92
2022-11-01T06:49:29.794Z,45.63
2022-11-01T06:50:53.817Z,52.33
2022-11-01T06:52:16.198Z,47.88
2022-11-01T06:53:39.522Z,38.65
2022-11-01T06:55:01.848Z,46.67
2022-11-01T06:56:26.583Z,46.30
2022-11-01T06:57:55.715Z,41.83
2022-11-01T06:59:19.067Z,49.10
2022-11-01T07:00:42.531Z,38.72
2022-11-01T07:02:08.855Z,40.42
2022-11-01T07:03:34.551Z,48.75
2022-11-01T07:04:56.901Z,36.90
2022-11-01T07:06:20.538Z,37.53
2022-11-01T07:07:43.882Z,46.47
2022-11-01T07:09:07.311Z,46.17
2022-11-01T07:10:30.958Z,41.17
2022-11-01T07:11:55.715Z,37.00
2022-11-01T07:13:19.094Z,41.45
2022-11-01T07:14:42.482Z,36.63
2022-11-01T07:16:06.594Z,43.70
2022-11-01T07:17:29.987Z,43.85
2022-11-01T07:18:53.317Z,48.03
2022-11-01T07:20:15.729Z,30.42
2022-11-01T07:21:39.320Z,35.03
2022-11-01T07:23:03.412Z,38.95
2022-11-01T07:24:27.031Z,40.50
2022-11-01T07:25:53.563Z,38.10
2022-11-01T07:27:20.510Z,41.28
2022-11-01T07:28:44.295Z,37.75
2022-11-01T07:30:08.033Z,39.08
2022-11-01T07:31:33.204Z,36.10
2022-11-01T07:32:56.168Z,36.05
2022-11-01T07:34:19.591Z,34.63
2022-11-01T07:35:41.945Z,38.42
2022-11-01T07:37:05.462Z,36.33
2022-11-01T07:38:28.829Z,36.08
2022-11-01T07:39:51.190Z,33.40
2022-11-01T07:41:14.513Z,33.42
2022-11-01T07:42:43.394Z,33.50
2022-11-01T07:44:06.955Z,34.30
2022-11-01T07:45:31.200Z,36.70
2022-11-01T07:46:54.539Z,36.50
2022-11-01T07:48:19.079Z,35.05
2022-11-01T07:49:42.401Z,34.28
2022-11-01T07:51:06.308Z,28.35
2022-11-01T07:52:29.686Z,31.17
2022-11-01T07:53:53.044Z,33.38
2022-11-01T07:55:16.500Z,29.50
2022-11-01T07:56:39.851Z,28.23
2022-11-01T07:58:05.438Z,29.45
2022-11-01T07:59:29.102Z,25.77
2022-11-01T08:00:51.520Z,32.72
2022-11-01T08:02:14.961Z,28.80
2022-11-01T08:03:38.525Z,34.72
2022-11-01T08:05:01.853Z,28.25
2022-11-01T08:06:25.219Z,26.75
2022-11-01T08:07:48.607Z,32.40
2022-11-01T08:09:11.936Z,27.15
2022-11-01T08:10:36.138Z,24.88
2022-11-01T08:11:59.762Z,29.40
2022-11-01T08:13:25.515Z,27.85
2022-11-01T08:14:48.837Z,22.73
2022-11-01T08:16:13.424Z,29.13
2022-11-01T08:17:35.948Z,26.40
2022-11-01T08:18:59.290Z,22.58
2022-11-01T08:20:22.629Z,24.50
2022-11-01T08:21:46.000Z,26.20
2022-11-01T08:23:08.682Z,22.05
2022-11-01T08:24:32.414Z,23.20
2022-11-01T08:25:55.776Z,21.15
2022-11-01T08:27:19.144Z,23.13
2022-11-01T08:28:43.848Z,22.63
2022-11-01T08:30:08.443Z,24.95
2022-11-01T08:31:31.816Z,24.13
2022-11-01T08:32:59.858Z,19.13
2022-11-01T08:34:23.390Z,22.35
2022-11-01T08:35:50.494Z,25.63
2022-11-01T08:37:14.255Z,20.98
2022-11-01T08:38:37.823Z,20.65
2022-11-01T08:40:01.188Z,20.60
2022-11-01T08:41:24.540Z,20.77
2022-11-01T08:42:47.903Z,26.23
2022-11-01T08:44:12.762Z,18.20
2022-11-01T08:45:36.177Z,21.20
2022-11-01T08:47:00.753Z,19.63
2022-11-01T08:48:24.096Z,21.23
2022-11-01T08:49:47.401Z,23.10
2022-11-01T08:51:10.780Z,18.90
2022-11-01T08:52:34.288Z,26.02
2022-11-01T08:53:57.947Z,23.33
2022-11-01T08:55:21.698Z,22.52
2022-11-01T08:56:45.159Z,21.52
2022-11-01T08:58:09.492Z,14.05
2022-11-01T08:59:34.189Z,18.90
2022-11-01T09:00:57.579Z,19.17
2022-11-01T09:02:21.068Z,17.73
2022-11-01T09:03:44.780Z,17.63
2022-11-01T09:05:09.538Z,18.13
2022-11-01T09:06:36.186Z,23.70
2022-11-01T09:08:01.088Z,19.90
2022-11-01T09:09:25.140Z,18.77
2022-11-01T09:10:48.493Z,21.13
2022-11-01T09:12:14.654Z,19.33
2022-11-01T09:13:38.283Z,22.35
2022-11-01T09:15:03.025Z,26.15
2022-11-01T09:16:26.519Z,17.65
2022-11-01T09:17:49.854Z,17.65
2022-11-01T09:19:13.206Z,25.33
2022-11-01T09:20:36.631Z,18.67
2022-11-01T09:21:59.989Z,14.82
2022-11-01T09:23:23.401Z,19.50
2022-11-01T09:24:46.730Z,18.50
2022-11-01T09:26:11.659Z,16.98
2022-11-01T09:27:35.129Z,17.48
2022-11-01T09:28:59.977Z,18.58
2022-11-01T09:30:24.663Z,20.63
2022-11-01T09:31:51.284Z,15.38
2022-11-01T09:33:14.620Z,15.32
2022-11-01T09:34:37.984Z,20.85
2022-11-01T09:36:02.327Z,20.40
2022-11-01T09:37:25.878Z,17.95
2022-11-01T09:38:49.218Z,16.10
2022-11-01T09:40:14.563Z,20.40
2022-11-01T09:41:42.683Z,18.38
2022-11-01T09:43:08.959Z,17.27
2022-11-01T09:44:35.041Z,15.00
2022-11-01T09:46:00.365Z,19.08
2022-11-01T09:47:26.651Z,26.83
2022-11-01T09:48:50.180Z,22.50
2022-11-01T09:50:18.471Z,25.60
2022-11-01T09:51:41.950Z,17.23
2022-11-01T09:53:09.958Z,16.02
2022-11-01T09:54:34.981Z,18.83
2022-11-01T09:56:04.177Z,17.05
2022-11-01T09:57:34.124Z,18.88
2022-11-01T09:59:03.154Z,15.43
2022-11-01T10:00:26.525Z,14.98
2022-11-01T10:01:57.361Z,18.20
2022-11-01T10:03:35.130Z,13.55
2022-11-01T10:05:16.069Z,12.43
2022-11-01T10:06:45.081Z,18.33
2022-11-01T10:08:13.684Z,16.63
2022-11-01T10:09:44.749Z,18.83
2022-11-01T10:11:26.450Z,19.13
2022-11-01T10:12:59.281Z,18.08
2022-11-01T10:14:36.839Z,15.35
2022-11-01T10:16:05.823Z,12.73
2022-11-01T10:17:50.905Z,16.00
2022-11-01T10:19:17.312Z,15.63
2022-11-01T10:20:41.959Z,17.80
2022-11-01T10:22:08.823Z,18.35
2022-11-01T10:23:41.019Z,17.90
2022-11-01T10:25:07.347Z,14.95
2022-11-01T10:26:31.802Z,18.88
2022-11-01T10:28:00.988Z,13.63
2022-11-01T10:29:31.829Z,16.65
2022-11-01T10:30:57.674Z,17.02
2022-11-01T10:32:29.102Z,12.45
2022-11-01T10:33:58.308Z,21.27
2022-11-01T10:35:25.361Z,15.05
2022-11-01T10:36:49.598Z,17.90
2022-11-01T10:38:35.133Z,11.98
2022-11-01T10:40:09.110Z,17.38
2022-11-01T10:41:39.030Z,19.10
2022-11-01T10:43:02.668Z,17.40
2022-11-01T10:44:29.009Z,17.42
2022-11-01T10:45:56.381Z,14.95
2022-11-01T10:47:20.591Z,17.27
2022-11-01T10:48:46.594Z,21.63
2022-11-01T10:50:18.812Z,13.13
2022-11-01T10:51:43.179Z,19.02
2022-11-01T10:53:11.130Z,21.50
2022-11-01T10:54:38.615Z,16.48
2022-11-01T10:56:08.980Z,9.60
2022-11-01T10:57:35.880Z,20.92
2022-11-01T10:59:02.847Z,16.50
2022-11-01T11:00:26.250Z,16.45
2022-11-01T11:01:51.370Z,15.88
2022-11-01T11:03:19.486Z,19.83
2022-11-01T11:04:42.918Z,16.63
2022-11-01T11:06:11.812Z,17.10
2022-11-01T11:07:35.318Z,14.73
2022-11-01T11:08:59.357Z,12.35
2022-11-01T11:10:26.566Z,12.38
2022-11-01T11:11:50.843Z,15.02
2022-11-01T11:13:16.398Z,12.43
2022-11-01T11:14:39.626Z,16.48
2022-11-01T11:16:05.527Z,14.57
2022-11-01T11:17:32.784Z,11.93
2022-11-01T11:19:04.432Z,16.73
2022-11-01T11:20:30.337Z,9.98
2022-11-01T11:21:55.740Z,13.85
2022-11-01T11:23:21.343Z,10.48
2022-11-01T11:24:45.883Z,9.82
2022-11-01T11:26:11.692Z,12.65
2022-11-01T11:27:35.069Z,12.05
2022-11-01T11:28:58.889Z,13.75
2022-11-01T11:30:29.981Z,10.75
2022-11-01T11:31:57.062Z,11.52
2022-11-01T11:33:20.953Z,8.95
2022-11-01T11:34:44.703Z,10.70
2022-11-01T11:36:08.962Z,9.40
2022-11-01T11:37:34.678Z,9.10
2022-11-01T11:38:57.168Z,12.75
2022-11-01T11:40:23.041Z,12.27
2022-11-01T11:41:47.124Z,9.27
2022-11-01T11:43:22.743Z,10.93
2022-11-01T11:44:50.634Z,9.18
2022-11-01T11:46:21.556Z,13.80
2022-11-01T11:47:46.881Z,15.70
2022-11-01T11:49:27.595Z,11.85
2022-11-01T11:51:01.982Z,10.63
2022-11-01T11:52:28.855Z,10.45
2022-11-01T11:54:18.886Z,12.02
2022-11-01T11:55:44.252Z,9.85
2022-11-01T11:57:12.086Z,8.07
2022-11-01T11:58:38.560Z,9.68
2022-11-01T12:00:05.829Z,9.18
2022-11-01T12:01:31.391Z,10.82
2022-11-01T12:02:54.830Z,7.47
2022-11-01T12:04:19.071Z,11.32
2022-11-01T12:05:53.752Z,9.35
2022-11-01T12:07:26.247Z,9.23
2022-11-01T12:08:50.968Z,9.02
2022-11-01T12:10:31.467Z,14.40
2022-11-01T12:11:54.818Z,9.68
2022-11-01T12:13:27.338Z,10.70
2022-11-01T12:14:50.834Z,11.40
2022-11-01T12:16:21.165Z,14.25
2022-11-01T12:17:46.851Z,13.02
2022-11-01T12:19:24.723Z,12.52
2022-11-01T12:20:51.433Z,11.57
2022-11-01T12:22:14.866Z,10.77
2022-11-01T12:23:40.066Z,12.68
2022-11-01T12:25:06.392Z,11.77
2022-11-01T12:26:34.976Z,15.65
2022-11-01T12:28:01.787Z,18.58
2022-11-01T12:29:30.095Z,14.48
2022-11-01T12:30:56.652Z,9.13
2022-11-01T12:32:25.920Z,13.82
2022-11-01T12:33:52.221Z,12.98
2022-11-01T12:35:26.548Z,13.77
2022-11-01T12:36:53.591Z,11.85
2022-11-01T12:38:33.883Z,10.85
2022-11-01T12:40:02.258Z,8.77
2022-11-01T12:41:31.844Z,16.45
2022-11-01T12:43:01.166Z,14.23
2022-11-01T12:44:33.287Z,8.50
2022-11-01T12:45:58.824Z,13.68
2022-11-01T12:47:25.954Z,13.52
2022-11-01T12:48:52.199Z,11.32
2022-11-01T12:50:20.323Z,9.32
2022-11-01T12:51:47.048Z,14.65
2022-11-01T12:53:14.077Z,9.93
2022-11-01T12:54:40.158Z,12.98
2022-11-01T12:56:03.609Z,10.07
2022-11-01T12:57:28.688Z,10.63
2022-11-01T12:58:53.854Z,11.00
2022-11-01T13:00:20.164Z,10.40
2022-11-01T13:01:52.208Z,9.63
2022-11-01T13:03:25.027Z,10.80
2022-11-01T13:04:54.115Z,11.32
2022-11-01T13:06:35.137Z,6.88
2022-11-01T13:08:04.912Z,9.60
2022-11-01T13:09:36.446Z,7.07
2022-11-01T13:11:05.221Z,9.07
2022-11-01T13:12:36.880Z,14.43
2022-11-01T13:14:07.929Z,8.82
2022-11-01T13:15:35.286Z,9.93
2022-11-01T13:17:04.785Z,9.43
2022-11-01T13:18:37.849Z,7.35
2022-11-01T13:20:06.538Z,8.27
2022-11-01T13:21:36.236Z,9.75
2022-11-01T13:23:07.538Z,8.50
2022-11-01T13:24:35.946Z,8.48
2022-11-01T13:26:04.815Z,7.13
2022-11-01T13:27:32.859Z,7.20
2022-11-01T13:29:07.765Z,9.00
2022-11-01T13:30:32.217Z,12.23
2022-11-01T13:32:02.088Z,8.63
2022-11-01T13:33:31.651Z,10.00
2022-11-01T13:35:32.815Z,7.20
2022-11-01T13:37:02.494Z,8.70
2022-11-01T13:38:33.361Z,10.07
2022-11-01T13:40:07.692Z,9.32
2022-11-01T13:41:35.333Z,7.22
2022-11-01T13:43:05.160Z,10.85
2022-11-01T13:44:32.381Z,10.60
2022-11-01T13:46:26.455Z,8.55
2022-11-01T13:47:53.416Z,9.18
2022-11-01T13:49:48.260Z,9.25
2022-11-01T13:51:28.847Z,8.80
2022-11-01T13:52:56.670Z,11.27
2022-11-01T13:54:23.336Z,7.82
2022-11-01T13:55:50.249Z,12.15
2022-11-01T13:57:16.072Z,10.60
2022-11-01T13:58:40.934Z,9.88
2022-11-01T14:00:09.119Z,8.15
2022-11-01T14:01:36.381Z,9.35
2022-11-01T14:03:01.118Z,11.07
2022-11-01T14:04:55.838Z,9.05
2022-11-01T14:06:31.337Z,9.93
2022-11-01T14:08:15.576Z,15.63
2022-11-01T14:09:48.237Z,7.65
2022-11-01T14:11:13.787Z,10.35
2022-11-01T14:12:43.293Z,12.90
2022-11-01T14:14:43.842Z,8.23
2022-11-01T14:16:29.581Z,9.10
2022-11-01T14:18:14.590Z,9.25
2022-11-01T14:19:38.176Z,8.18
2022-11-01T14:21:28.577Z,11.88
2022-11-01T14:22:50.941Z,8.13
2022-11-01T14:24:23.552Z,13.45
2022-11-01T14:25:47.232Z,12.55
2022-11-01T14:27:24.288Z,9.93
2022-11-01T14:28:47.329Z,12.05
2022-11-01T14:30:16.172Z,13.35
2022-11-01T14:31:40.561Z,10.10
2022-11-01T14:33:05.204Z,11.27
2022-11-01T14:34:32.749Z,7.95
2022-11-01T14:35:57.816Z,9.43
2022-11-01T14:37:23.811Z,8.57
2022-11-01T14:38:50.124Z,12.02
2022-11-01T14:40:31.492Z,9.10
2022-11-01T14:41:56.420Z,7.75
2022-11-01T14:43:23.406Z,7.60
2022-11-01T14:44:50.522Z,14.98
2022-11-01T14:46:17.255Z,13.85
2022-11-01T14:47:43.241Z,9.00
2022-11-01T14:49:17.446Z,5.25
2022-11-01T14:50:46.738Z,8.75
2022-11-01T14:52:12.699Z,12.32
2022-11-01T14:53:37.567Z,9.70
2022-11-01T14:55:07.246Z,13.75
2022-11-01T14:56:38.435Z,11.15
2022-11-01T14:58:22.209Z,6.72
2022-11-01T14:59:45.546Z,10.55
2022-11-01T15:01:13.172Z,10.63
2022-11-01T15:02:36.875Z,11.23
2022-11-01T15:04:02.308Z,13.27
2022-11-01T15:05:26.036Z,7.40
2022-11-01T15:06:50.208Z,11.05
2022-11-01T15:08:31.574Z,12.82
2022-11-01T15:09:59.247Z,7.20
2022-11-01T15:11:22.615Z,13.00
2022-11-01T15:12:47.767Z,11.60
2022-11-01T15:14:11.496Z,11.82
2022-11-01T15:15:37.877Z,12.38
2022-11-01T15:17:01.391Z,8.65
2022-11-01T15:18:24.827Z,10.15
2022-11-01T15:19:52.250Z,10.80
2022-11-01T15:21:22.047Z,11.30
2022-11-01T15:22:48.767Z,13.55
2022-11-01T15:24:20.480Z,12.00
2022-11-01T15:25:45.648Z,9.57
2022-11-01T15:27:12.885Z,11.30
2022-11-01T15:28:40.383Z,10.52
2022-11-01T15:30:04.773Z,11.48
2022-11-01T15:31:28.433Z,16.73
2022-11-01T15:33:10.274Z,9.95
2022-11-01T15:34:36.384Z,10.45
2022-11-01T15:36:03.883Z,13.02
2022-11-01T15:37:30.588Z,10.60
2022-11-01T15:38:55.793Z,10.73
2022-11-01T15:40:27.713Z,12.35
2022-11-01T15:41:52.088Z,11.52
2022-11-01T15:43:19.726Z,11.90
2022-11-01T15:44:46.111Z,9.80
2022-11-01T15:46:19.551Z,10.93
2022-11-01T15:47:45.369Z,7.95
2022-11-01T15:49:10.876Z,13.57
2022-11-01T15:50:36.584Z,12.45
2022-11-01T15:52:04.246Z,10.85
2022-11-01T15:53:29.521Z,10.93
2022-11-01T15:54:56.315Z,15.43
2022-11-01T15:56:25.233Z,12.07
2022-11-01T15:57:52.329Z,11.65
2022-11-01T15:59:24.366Z,11.43
2022-11-01T16:00:50.030Z,10.32
2022-11-01T16:02:18.044Z,8.02
2022-11-01T16:03:44.800Z,13.15
2022-11-01T16:05:09.247Z,10.70
2022-11-01T16:06:37.147Z,12.75
2022-11-01T16:08:02.056Z,8.45
2022-11-01T16:09:33.421Z,11.52
2022-11-01T16:10:57.015Z,10.57
2022-11-01T16:12:22.679Z,13.70
2022-11-01T16:13:50.660Z,13.63
2022-11-01T16:15:22.137Z,10.15
2022-11-01T16:16:59.065Z,11.10
2022-11-01T16:18:25.521Z,15.40
2022-11-01T16:19:50.884Z,10.60
2022-11-01T16:21:27.774Z,9.82
2022-11-01T16:22:51.774Z,11.20
2022-11-01T16:24:21.468Z,10.30
2022-11-01T16:25:44.810Z,10.40
2022-11-01T16:27:12.064Z,24.98
2022-11-01T16:28:40.844Z,25.67
2022-11-01T16:30:08.480Z,16.08
2022-11-01T16:31:33.407Z,17.05
2022-11-01T16:32:55.758Z,18.33
2022-11-01T16:34:24.926Z,15.27
2022-11-01T16:35:49.488Z,25.35
2022-11-01T16:37:22.600Z,20.60
2022-11-01T16:38:46.812Z,18.55
2022-11-01T16:40:29.969Z,11.30
2022-11-01T16:41:53.353Z,14.60
2022-11-01T16:43:16.734Z,16.48
2022-11-01T16:44:41.178Z,11.27
2022-11-01T16:46:05.888Z,9.88
2022-11-01T16:47:29.248Z,11.98
2022-11-01T16:48:54.032Z,18.45
2022-11-01T16:50:19.354Z,11.55
2022-11-01T16:51:42.913Z,13.77
2022-11-01T16:53:10.104Z,12.32
2022-11-01T16:54:33.509Z,15.55
2022-11-01T16:56:23.163Z,11.07
2022-11-01T16:57:48.149Z,13.18
2022-11-01T16:59:22.110Z,15.30
2022-11-01T17:00:52.347Z,9.45
2022-11-01T17:02:17.871Z,9.18
2022-11-01T17:03:42.045Z,16.75
2022-11-01T17:05:16.635Z,13.32
2022-11-01T17:06:39.985Z,14.02
2022-11-01T17:08:03.861Z,11.98
2022-11-01T17:09:30.668Z,16.25
2022-11-01T17:10:54.019Z,15.98
2022-11-01T17:12:18.708Z,13.23
2022-11-01T17:13:42.559Z,9.82
2022-11-01T17:15:09.464Z,10.55
2022-11-01T17:16:32.925Z,11.27
2022-11-01T17:17:56.373Z,12.05
2022-11-01T17:19:23.123Z,10.35
2022-11-01T17:20:48.806Z,25.45
2022-11-01T17:22:16.111Z,12.27
2022-11-01T17:23:39.510Z,10.65
2022-11-01T17:25:03.390Z,17.45
2022-11-01T17:26:26.833Z,9.10
2022-11-01T17:27:52.618Z,13.52
2022-11-01T17:29:16.104Z,12.88
2022-11-01T17:30:39.508Z,12.52
2022-11-01T17:32:04.139Z,11.27
2022-11-01T17:33:26.533Z,10.90
2022-11-01T17:34:49.866Z,10.00
2022-11-01T17:36:15.094Z,9.77
2022-11-01T17:37:38.563Z,11.57
2022-11-01T17:39:01.901Z,20.00
2022-11-01T17:40:26.418Z,13.00
2022-11-01T17:41:49.764Z,12.80
2022-11-01T17:43:18.821Z,8.88
2022-11-01T17:44:42.265Z,14.75
2022-11-01T17:46:12.072Z,13.30
2022-11-01T17:47:35.420Z,12.57
2022-11-01T17:48:58.884Z,14.75
2022-11-01T17:50:22.722Z,17.50
2022-11-01T17:51:48.423Z,13.35
2022-11-01T17:53:17.175Z,11.50
2022-11-01T17:54:40.882Z,27.05
2022-11-01T17:56:04.395Z,23.27
2022-11-01T17:57:27.727Z,14.23
2022-11-01T17:58:53.776Z,28.83
2022-11-01T18:00:18.220Z,29.08
2022-11-01T18:01:42.788Z,25.77
2022-11-01T18:03:06.380Z,23.48
2022-11-01T18:04:35.510Z,23.40
2022-11-01T18:06:00.851Z,26.52
2022-11-01T18:07:24.216Z,15.90
2022-11-01T18:08:49.757Z,23.42
2022-11-01T18:10:18.635Z,19.15
2022-11-01T18:11:45.969Z,22.15
2022-11-01T18:13:21.295Z,21.23
2022-11-01T18:14:55.210Z,38.30
2022-11-01T18:16:26.086Z,15.63
2022-11-01T18:17:56.720Z,16.58
2022-11-01T18:19:45.007Z,26.80
2022-11-01T18:21:12.498Z,21.52
2022-11-01T18:22:42.669Z,19.60
2022-11-01T18:24:14.328Z,20.08
2022-11-01T18:25:42.627Z,13.23
2022-11-01T18:27:11.084Z,23.92
2022-11-01T18:28:35.265Z,16.02
2022-11-01T18:30:00.065Z,21.15
2022-11-01T18:31:26.549Z,20.42
2022-11-01T18:32:54.794Z,12.15
2022-11-01T18:34:25.801Z,26.80
2022-11-01T18:35:54.679Z,19.10
2022-11-01T18:37:26.801Z,18.05
2022-11-01T18:38:57.028Z,25.10
2022-11-01T18:40:24.607Z,21.60
2022-11-01T18:41:48.274Z,36.30
2022-11-01T18:43:11.618Z,22.77
2022-11-01T18:44:35.190Z,22.67
2022-11-01T18:47:46.793Z,22.17